createdAt,value
2019-02-06T00:00:50.898Z,62.40
2019-02-06T00:03:22.910Z,55.67
2019-02-06T00:05:54.394Z,57.10
2019-02-06T00:08:24.909Z,55.67
2019-02-06T00:10:55.261Z,53.30
2019-02-06T00:13:25.667Z,53.13
2019-02-06T00:15:56.535Z,52.87
2019-02-06T00:18:27.754Z,50.50
2019-02-06T00:20:58.120Z,47.50
2019-02-06T00:23:28.514Z,46.53
2019-02-06T00:25:58.871Z,41.30
2019-02-06T00:28:29.272Z,42.63
2019-02-06T00:30:59.659Z,45.50
2019-02-06T00:33:29.945Z,44.53
2019-02-06T00:36:00.343Z,41.73
2019-02-06T00:38:30.599Z,42.67
2019-02-06T00:41:00.878Z,43.50
2019-02-06T00:43:31.423Z,41.23
2019-02-06T00:46:01.783Z,37.57
2019-02-06T00:48:32.176Z,39.23
2019-02-06T00:51:02.467Z,43.53
2019-02-06T00:53:32.807Z,36.13
2019-02-06T00:56:03.245Z,41.47
2019-02-06T00:58:33.702Z,37.10
2019-02-06T01:01:04.282Z,40.83
2019-02-06T01:03:34.776Z,41.63
2019-02-06T01:06:05.433Z,37.30
2019-02-06T01:08:36.718Z,34.13
2019-02-06T01:11:07.884Z,36.33
2019-02-06T01:13:38.170Z,34.17
2019-02-06T01:16:09.699Z,37.13
2019-02-06T01:18:40.077Z,35.97
2019-02-06T01:21:12.180Z,36.63
2019-02-06T01:23:43.809Z,34.23
2019-02-06T01:26:14.856Z,36.70
2019-02-06T01:28:45.337Z,37.93
2019-02-06T01:31:22.500Z,36.83
2019-02-06T01:33:52.810Z,39.73
2019-02-06T01:36:23.307Z,34.43
2019-02-06T01:38:53.709Z,35.50
2019-02-06T01:41:24.070Z,34.07
2019-02-06T01:43:54.424Z,35.50
2019-02-06T01:46:24.720Z,35.47
2019-02-06T01:48:55.251Z,34.83
2019-02-06T01:51:26.216Z,34.90
2019-02-06T01:53:58.120Z,36.13
2019-02-06T01:56:28.420Z,35.70
2019-02-06T01:58:58.914Z,35.13
2019-02-06T02:01:29.303Z,33.30
2019-02-06T02:04:01.296Z,34.70
2019-02-06T02:06:31.779Z,35.93
2019-02-06T02:09:02.315Z,32.73
2019-02-06T02:11:34.225Z,36.03
2019-02-06T02:14:05.182Z,35.73
2019-02-06T02:16:35.639Z,36.10
2019-02-06T02:19:08.166Z,31.80
2019-02-06T02:21:38.717Z,32.03
2019-02-06T02:24:09.421Z,33.20
2019-02-06T02:26:39.956Z,33.37
2019-02-06T02:29:10.423Z,40.33
2019-02-06T02:31:41.139Z,34.60
2019-02-06T02:34:11.496Z,32.17
2019-02-06T02:36:41.974Z,31.10
2019-02-06T02:39:12.486Z,34.90
2019-02-06T02:41:43.016Z,32.40
2019-02-06T02:44:13.524Z,31.10
2019-02-06T02:46:44.386Z,34.93
2019-02-06T02:49:14.807Z,31.40
2019-02-06T02:51:45.242Z,33.90
2019-02-06T02:54:15.791Z,31.90
2019-02-06T02:56:46.383Z,31.80
2019-02-06T02:59:17.215Z,32.73
2019-02-06T03:02:05.357Z,32.10
2019-02-06T03:04:39.764Z,30.87
2019-02-06T03:07:10.107Z,33.00
2019-02-06T03:09:40.756Z,29.70
2019-02-06T03:12:11.165Z,32.77
2019-02-06T03:14:41.488Z,38.07
2019-02-06T03:17:11.888Z,34.40
2019-02-06T03:19:42.295Z,35.87
2019-02-06T03:22:12.680Z,30.60
2019-02-06T03:24:42.995Z,32.23
2019-02-06T03:27:13.344Z,30.77
2019-02-06T03:29:43.696Z,32.17
2019-02-06T03:32:15.502Z,33.97
2019-02-06T03:34:45.862Z,32.37
2019-02-06T03:37:16.555Z,31.70
2019-02-06T03:39:46.876Z,36.93
2019-02-06T03:42:17.262Z,35.60
2019-02-06T03:44:47.480Z,35.17
2019-02-06T03:47:17.803Z,35.73
2019-02-06T03:49:48.894Z,30.87
2019-02-06T03:52:19.253Z,31.20
2019-02-06T03:54:49.578Z,36.20
2019-02-06T03:57:19.903Z,34.43
2019-02-06T03:59:50.240Z,36.60
2019-02-06T04:02:20.653Z,33.97
2019-02-06T04:04:51.273Z,34.43
2019-02-06T04:07:21.746Z,33.50
2019-02-06T04:09:52.220Z,35.97
2019-02-06T04:12:22.522Z,36.17
2019-02-06T04:14:52.893Z,34.80
2019-02-06T04:17:23.199Z,33.23
2019-02-06T04:19:53.825Z,33.80
2019-02-06T04:22:24.175Z,50.43
2019-02-06T04:24:54.581Z,37.80
2019-02-06T04:27:24.931Z,39.47
2019-02-06T04:29:55.333Z,34.37
2019-02-06T04:32:25.900Z,38.17
2019-02-06T04:34:56.516Z,35.50
2019-02-06T04:37:26.879Z,42.03
2019-02-06T04:39:57.345Z,38.10
2019-02-06T04:42:27.707Z,37.33
2019-02-06T04:44:58.298Z,38.87
2019-02-06T04:47:28.728Z,42.83
2019-02-06T04:49:59.156Z,38.63
2019-02-06T04:52:29.521Z,44.70
2019-02-06T04:55:00.029Z,44.93
2019-02-06T04:57:30.411Z,45.17
2019-02-06T05:00:00.778Z,43.17
2019-02-06T05:02:31.615Z,44.13
2019-02-06T05:05:02.040Z,45.83
2019-02-06T05:07:32.435Z,53.00
2019-02-06T05:10:02.880Z,50.67
2019-02-06T05:12:33.239Z,49.03
2019-02-06T05:15:04.790Z,52.33
2019-02-06T05:17:35.189Z,51.20
2019-02-06T05:20:14.997Z,52.33
2019-02-06T05:22:48.451Z,53.30
2019-02-06T05:25:18.799Z,57.57
2019-02-06T05:27:49.496Z,55.87
2019-02-06T05:30:20.136Z,58.57
2019-02-06T05:32:50.771Z,61.50
2019-02-06T05:35:21.234Z,61.80
2019-02-06T05:37:51.643Z,65.23
2019-02-06T05:40:22.077Z,65.10
2019-02-06T05:42:54.040Z,68.67
2019-02-06T05:45:24.448Z,79.87
2019-02-06T05:47:55.963Z,82.70
2019-02-06T05:50:28.345Z,84.53
2019-02-06T05:53:03.938Z,88.07
2019-02-06T05:55:34.623Z,93.17
2019-02-06T05:58:05.616Z,104.43
2019-02-06T06:00:43.204Z,96.03
2019-02-06T06:03:14.935Z,92.63
2019-02-06T06:05:45.548Z,93.17
2019-02-06T06:08:19.176Z,91.60
2019-02-06T06:10:49.831Z,99.60
2019-02-06T06:13:20.348Z,98.23
2019-02-06T06:15:51.472Z,106.13
2019-02-06T06:18:22.147Z,101.10
2019-02-06T06:20:52.746Z,94.80
2019-02-06T06:23:23.193Z,102.47
2019-02-06T06:25:53.699Z,114.57
2019-02-06T06:28:24.522Z,105.47
2019-02-06T06:30:54.964Z,108.43
2019-02-06T06:33:25.542Z,109.60
2019-02-06T06:35:56.123Z,98.27
2019-02-06T06:38:26.487Z,111.50
2019-02-06T06:40:56.901Z,106.20
2019-02-06T06:43:27.457Z,97.67
2019-02-06T06:45:57.912Z,110.67
2019-02-06T06:48:28.268Z,106.10
2019-02-06T06:50:58.864Z,105.00
2019-02-06T06:53:31.747Z,111.90
2019-02-06T06:56:02.099Z,104.13
2019-02-06T06:58:32.669Z,113.00
2019-02-06T07:01:03.183Z,102.20
2019-02-06T07:03:33.601Z,99.73
2019-02-06T07:06:03.969Z,103.63
2019-02-06T07:08:34.425Z,112.60
2019-02-06T07:11:04.729Z,108.07
2019-02-06T07:13:35.111Z,96.10
2019-02-06T07:16:05.539Z,95.33
2019-02-06T07:18:37.565Z,105.13
2019-02-06T07:21:07.875Z,100.20
2019-02-06T07:23:39.970Z,104.60
2019-02-06T07:26:10.303Z,99.17
2019-02-06T07:28:40.591Z,94.23
2019-02-06T07:31:10.903Z,104.83
2019-02-06T07:33:41.270Z,93.97
2019-02-06T07:36:11.567Z,93.80
2019-02-06T07:38:41.983Z,94.50
2019-02-06T07:41:12.359Z,88.03
2019-02-06T07:43:42.821Z,84.83
2019-02-06T07:46:13.170Z,89.87
2019-02-06T07:48:43.648Z,76.90
2019-02-06T07:51:14.083Z,74.63
2019-02-06T07:53:44.412Z,77.77
2019-02-06T07:56:14.782Z,73.73
2019-02-06T07:58:46.933Z,76.13
2019-02-06T08:01:17.232Z,69.30
2019-02-06T08:03:47.656Z,70.77
2019-02-06T08:06:17.988Z,71.80
2019-02-06T08:08:49.136Z,74.87
2019-02-06T08:11:19.482Z,68.87
2019-02-06T08:13:49.922Z,63.63
2019-02-06T08:16:20.208Z,64.00
2019-02-06T08:18:50.710Z,61.63
2019-02-06T08:21:21.096Z,64.40
2019-02-06T08:23:53.049Z,64.60
2019-02-06T08:26:23.658Z,67.77
2019-02-06T08:28:53.940Z,65.50
2019-02-06T08:31:24.208Z,65.80
2019-02-06T08:33:54.533Z,69.20
2019-02-06T08:36:24.790Z,68.37
2019-02-06T08:38:57.775Z,68.53
2019-02-06T08:41:28.153Z,65.90
2019-02-06T08:44:01.622Z,68.20
2019-02-06T08:46:30.489Z,66.03
2019-02-06T08:49:00.941Z,67.93
2019-02-06T08:51:31.374Z,73.40
2019-02-06T08:54:01.771Z,69.70
2019-02-06T08:56:32.080Z,71.70
2019-02-06T08:59:04.132Z,64.40
2019-02-06T09:01:34.820Z,57.30
2019-02-06T09:04:10.023Z,64.40
2019-02-06T09:06:40.613Z,59.30
2019-02-06T09:09:12.180Z,63.47
2019-02-06T09:11:42.543Z,66.07
2019-02-06T09:14:12.875Z,57.93
2019-02-06T09:16:43.515Z,69.67
2019-02-06T09:19:13.876Z,71.77
2019-02-06T09:21:44.208Z,57.73
2019-02-06T09:24:14.591Z,66.03
2019-02-06T09:26:44.923Z,64.13
2019-02-06T09:29:15.285Z,60.70
2019-02-06T09:31:45.711Z,67.07
2019-02-06T09:34:16.436Z,55.20
2019-02-06T09:36:46.781Z,51.67
2019-02-06T09:39:17.094Z,45.73
2019-02-06T09:41:47.381Z,48.60
2019-02-06T09:44:17.857Z,49.50
2019-02-06T09:46:50.618Z,42.10
2019-02-06T09:49:20.965Z,51.13
2019-02-06T09:51:51.432Z,55.30
2019-02-06T09:54:21.829Z,53.43
2019-02-06T09:56:52.192Z,57.60
2019-02-06T09:59:22.558Z,49.20
2019-02-06T10:01:53.378Z,54.63
2019-02-06T10:04:24.101Z,57.97
2019-02-06T10:06:54.549Z,60.53
2019-02-06T10:09:24.941Z,61.17
2019-02-06T10:11:55.383Z,57.17
2019-02-06T10:14:25.803Z,66.83
2019-02-06T10:16:56.646Z,68.47
2019-02-06T10:19:27.094Z,66.70
2019-02-06T10:21:57.386Z,71.50
2019-02-06T10:24:29.347Z,65.47
2019-02-06T10:26:59.747Z,70.80
2019-02-06T10:29:30.082Z,64.57
2019-02-06T10:32:00.473Z,65.93
2019-02-06T10:34:30.815Z,74.17
2019-02-06T10:37:01.197Z,67.47
2019-02-06T10:39:34.703Z,68.93
2019-02-06T10:42:03.703Z,77.63
2019-02-06T10:44:34.115Z,60.70
2019-02-06T10:47:04.407Z,65.23
2019-02-06T10:49:34.788Z,65.17
2019-02-06T10:52:05.242Z,55.83
2019-02-06T10:54:35.540Z,63.00
2019-02-06T10:57:05.885Z,60.27
2019-02-06T10:59:36.281Z,51.37
2019-02-06T11:02:06.918Z,44.10
2019-02-06T11:04:37.453Z,46.03
2019-02-06T11:07:08.310Z,44.40
2019-02-06T11:09:45.875Z,43.43
2019-02-06T11:12:11.274Z,43.63
2019-02-06T11:14:41.754Z,38.13
2019-02-06T11:17:12.130Z,38.60
2019-02-06T11:19:43.244Z,40.63
2019-02-06T11:22:13.900Z,38.33
2019-02-06T11:24:44.358Z,36.57
2019-02-06T11:27:31.879Z,36.70
2019-02-06T11:30:08.390Z,44.57
2019-02-06T11:32:38.886Z,33.10
2019-02-06T11:35:11.942Z,31.87
2019-02-06T11:37:42.001Z,34.03
2019-02-06T11:40:16.963Z,32.27
2019-02-06T11:42:48.835Z,35.90
2019-02-06T11:45:22.355Z,30.10
2019-02-06T11:47:52.764Z,32.50
2019-02-06T11:50:28.453Z,32.23
2019-02-06T11:52:58.880Z,32.10
2019-02-06T11:55:29.487Z,31.60
2019-02-06T11:57:59.965Z,28.20
2019-02-06T12:01:05.420Z,31.87
2019-02-06T12:03:35.868Z,26.23
2019-02-06T12:06:07.996Z,27.53
2019-02-06T12:08:38.406Z,25.00
2019-02-06T12:11:10.343Z,27.97
2019-02-06T12:13:40.809Z,27.30
2019-02-06T12:16:11.289Z,26.67
2019-02-06T12:18:41.875Z,29.33
2019-02-06T12:21:13.261Z,35.93
2019-02-06T12:23:44.043Z,28.83
2019-02-06T12:26:14.493Z,31.07
2019-02-06T12:28:45.068Z,36.03
2019-02-06T12:31:15.641Z,31.67
2019-02-06T12:33:46.236Z,37.27
2019-02-06T12:36:17.265Z,38.20
2019-02-06T12:38:53.730Z,37.43
2019-02-06T12:41:20.931Z,41.83
2019-02-06T12:43:51.324Z,44.07
2019-02-06T12:46:21.924Z,38.77
2019-02-06T12:48:52.438Z,36.63
2019-02-06T12:51:23.160Z,31.60
2019-02-06T12:53:53.542Z,32.47
2019-02-06T12:56:24.160Z,32.77
2019-02-06T12:58:54.448Z,32.40
2019-02-06T13:01:24.964Z,38.93
2019-02-06T13:03:55.283Z,30.10
2019-02-06T13:06:25.714Z,34.27
2019-02-06T13:08:56.165Z,37.57
2019-02-06T13:11:26.520Z,46.73
2019-02-06T13:13:56.816Z,38.07
2019-02-06T13:16:27.208Z,46.00
2019-02-06T13:19:02.819Z,46.67
2019-02-06T13:21:33.363Z,49.57
2019-02-06T13:24:03.636Z,53.13
2019-02-06T13:26:34.020Z,48.27
2019-02-06T13:29:06.421Z,52.53
2019-02-06T13:31:37.862Z,62.33
2019-02-06T13:34:08.291Z,66.53
2019-02-06T13:36:38.737Z,64.67
2019-02-06T13:39:11.185Z,71.67
2019-02-06T13:41:43.148Z,58.93
2019-02-06T13:44:13.503Z,61.67
2019-02-06T13:46:53.057Z,58.03
2019-02-06T13:49:16.072Z,61.23
2019-02-06T13:51:49.039Z,77.33
2019-02-06T13:54:19.492Z,73.33
2019-02-06T13:56:49.913Z,79.10
2019-02-06T13:59:20.596Z,73.87
2019-02-06T14:01:51.069Z,87.07
2019-02-06T14:04:24.331Z,84.13
2019-02-06T14:06:55.721Z,72.07
2019-02-06T14:09:26.652Z,76.90
2019-02-06T14:11:57.633Z,73.93
2019-02-06T14:14:28.104Z,76.80
2019-02-06T14:16:58.572Z,85.40
2019-02-06T14:19:32.136Z,100.40
2019-02-06T14:22:02.772Z,88.97
2019-02-06T14:24:59.426Z,80.17
2019-02-06T14:27:56.334Z,90.53
2019-02-06T14:31:06.210Z,86.93
2019-02-06T14:34:08.281Z,110.80
2019-02-06T14:37:20.223Z,98.13
2019-02-06T14:40:21.433Z,100.63
2019-02-06T14:43:41.669Z,123.17
2019-02-06T14:46:37.018Z,97.23
2019-02-06T14:50:03.814Z,100.73
2019-02-06T14:53:13.948Z,116.67
2019-02-06T14:56:14.697Z,98.20
2019-02-06T14:59:19.034Z,136.63
2019-02-06T15:02:27.085Z,132.67
2019-02-06T15:06:02.849Z,143.13
2019-02-06T15:09:01.395Z,108.20
2019-02-06T15:12:05.328Z,107.43
2019-02-06T15:15:11.999Z,87.23
2019-02-06T15:18:12.949Z,79.47
2019-02-06T15:21:30.861Z,96.23
2019-02-06T15:24:33.610Z,86.00
2019-02-06T15:27:32.308Z,79.13
2019-02-06T15:30:23.315Z,78.47
2019-02-06T15:33:37.815Z,70.73
2019-02-06T15:36:35.301Z,64.50
2019-02-06T15:39:55.950Z,51.77
2019-02-06T15:42:57.715Z,53.20
2019-02-06T15:45:53.137Z,41.00
2019-02-06T15:49:19.343Z,38.97
2019-02-06T15:52:54.829Z,47.40
2019-02-06T15:55:53.439Z,43.20
2019-02-06T15:58:54.790Z,41.80
2019-02-06T16:01:57.689Z,37.33
2019-02-06T16:05:33.632Z,43.57
2019-02-06T16:08:45.258Z,45.53
2019-02-06T16:11:51.269Z,31.10
2019-02-06T16:14:47.459Z,25.10
2019-02-06T16:17:51.002Z,25.70
2019-02-06T16:21:11.017Z,23.07
2019-02-06T16:24:19.065Z,20.77
2019-02-06T16:27:39.301Z,21.10
2019-02-06T16:30:24.832Z,24.27
2019-02-06T16:33:49.837Z,23.57
2019-02-06T16:36:48.648Z,30.70
2019-02-06T16:39:48.208Z,21.90
2019-02-06T16:43:07.582Z,26.50
2019-02-06T16:46:11.450Z,24.40
2019-02-06T16:49:01.401Z,22.57
2019-02-06T16:52:22.200Z,23.37
2019-02-06T16:55:26.764Z,26.67
2019-02-06T16:58:06.015Z,27.10
2019-02-06T17:01:20.763Z,29.87
2019-02-06T17:04:38.655Z,25.00
2019-02-06T17:07:44.102Z,24.43
2019-02-06T17:10:45.203Z,21.97
2019-02-06T17:14:08.756Z,25.50
2019-02-06T17:17:04.308Z,27.63
2019-02-06T17:20:12.582Z,23.97
2019-02-06T17:23:11.314Z,22.77
2019-02-06T17:26:20.982Z,26.87
2019-02-06T17:29:34.920Z,26.33
2019-02-06T17:32:58.418Z,24.83
2019-02-06T17:35:47.849Z,23.17
2019-02-06T17:39:05.542Z,24.37
2019-02-06T17:42:15.875Z,20.30
2019-02-06T17:45:16.532Z,21.67
2019-02-06T17:48:15.178Z,20.93
2019-02-06T17:51:26.515Z,24.27
2019-02-06T17:54:43.175Z,23.90
2019-02-06T17:57:13.646Z,19.67
2019-02-06T17:59:46.849Z,24.47
2019-02-06T18:02:18.534Z,23.27
2019-02-06T18:04:52.288Z,22.17
2019-02-06T18:07:25.704Z,24.33
2019-02-06T18:09:56.169Z,22.73
2019-02-06T18:12:28.556Z,20.57
2019-02-06T18:14:58.681Z,20.20
2019-02-06T18:17:29.080Z,18.30
2019-02-06T18:19:59.393Z,18.03
2019-02-06T18:22:29.790Z,17.90
2019-02-06T18:25:00.297Z,18.83
2019-02-06T18:27:31.067Z,18.27
2019-02-06T18:30:01.795Z,22.67
2019-02-06T18:32:33.040Z,19.37
2019-02-06T18:35:05.802Z,17.77
2019-02-06T18:37:43.485Z,19.60
2019-02-06T18:40:10.389Z,20.83
2019-02-06T18:42:40.914Z,17.37
2019-02-06T18:45:14.316Z,18.90
2019-02-06T18:47:44.807Z,17.47
2019-02-06T18:50:18.679Z,20.00
2019-02-06T18:52:50.066Z,21.33
2019-02-06T18:55:21.287Z,19.50
2019-02-06T18:57:51.866Z,22.63
2019-02-06T19:00:25.525Z,20.27
2019-02-06T19:02:56.296Z,27.90
2019-02-06T19:05:30.175Z,25.17
2019-02-06T19:08:01.216Z,23.07
2019-02-06T19:10:34.864Z,20.03
2019-02-06T19:13:05.641Z,18.97
2019-02-06T19:15:36.706Z,17.10
2019-02-06T19:18:10.343Z,18.87
2019-02-06T19:20:40.813Z,19.70
2019-02-06T19:23:11.263Z,23.87
2019-02-06T19:25:44.673Z,22.07
2019-02-06T19:28:15.665Z,24.57
2019-02-06T19:30:48.246Z,29.07
2019-02-06T19:33:20.941Z,28.40
2019-02-06T19:35:52.798Z,37.87
2019-02-06T19:38:23.162Z,36.57
2019-02-06T19:40:53.636Z,43.50
2019-02-06T19:43:24.495Z,40.00
2019-02-06T19:45:58.693Z,45.53
2019-02-06T19:48:33.437Z,44.10
2019-02-06T19:51:03.957Z,45.83
2019-02-06T19:53:34.485Z,43.37
2019-02-06T19:56:05.678Z,42.33
2019-02-06T19:58:36.322Z,44.87
2019-02-06T20:01:07.006Z,44.47
2019-02-06T20:03:40.312Z,41.53
2019-02-06T20:06:28.509Z,39.50
2019-02-06T20:09:11.595Z,36.30
2019-02-06T20:11:42.320Z,37.90
2019-02-06T20:14:12.805Z,33.33
2019-02-06T20:16:43.331Z,36.60
2019-02-06T20:19:14.023Z,34.83
2019-02-06T20:21:44.997Z,34.47
2019-02-06T20:24:15.535Z,39.07
2019-02-06T20:26:46.016Z,39.93
2019-02-06T20:29:18.182Z,35.70
2019-02-06T20:31:49.803Z,37.67
2019-02-06T20:34:20.307Z,39.97
2019-02-06T20:36:56.415Z,36.53
2019-02-06T20:39:27.108Z,41.93
2019-02-06T20:41:57.619Z,48.40
2019-02-06T20:44:29.822Z,45.87
2019-02-06T20:47:04.286Z,52.37
2019-02-06T20:49:36.214Z,61.00
2019-02-06T20:52:06.745Z,55.00
2019-02-06T20:54:37.506Z,59.47
2019-02-06T20:57:13.571Z,62.07
2019-02-06T20:59:40.168Z,67.70
2019-02-06T21:02:13.757Z,63.00
2019-02-06T21:04:47.062Z,56.97
2019-02-06T21:07:16.798Z,62.33
2019-02-06T21:09:47.221Z,71.27
2019-02-06T21:12:17.634Z,66.30
2019-02-06T21:14:48.511Z,68.73
2019-02-06T21:17:19.463Z,85.43
2019-02-06T21:19:49.998Z,71.77
2019-02-06T21:22:20.515Z,94.73
2019-02-06T21:24:51.183Z,89.00
2019-02-06T21:27:21.646Z,94.60
2019-02-06T21:29:54.104Z,81.83
2019-02-06T21:32:24.563Z,107.20
2019-02-06T21:34:54.997Z,83.77
2019-02-06T21:37:27.100Z,72.33
2019-02-06T21:39:57.529Z,73.60
2019-02-06T21:42:27.913Z,87.70
2019-02-06T21:44:58.485Z,91.53
2019-02-06T21:47:28.895Z,97.20
2019-02-06T21:49:59.680Z,82.07
2019-02-06T21:52:30.159Z,89.73
2019-02-06T21:55:00.537Z,93.10
2019-02-06T21:57:32.789Z,87.30
2019-02-06T22:00:03.287Z,92.67
2019-02-06T22:02:34.961Z,86.73
2019-02-06T22:05:06.151Z,78.20
2019-02-06T22:07:36.522Z,94.43
2019-02-06T22:10:08.292Z,90.77
2019-02-06T22:12:38.645Z,85.33
2019-02-06T22:15:15.648Z,84.07
2019-02-06T22:17:46.219Z,86.83
2019-02-06T22:20:18.343Z,93.03
2019-02-06T22:22:49.119Z,90.97
2019-02-06T22:25:19.737Z,83.03
2019-02-06T22:27:51.242Z,85.10
2019-02-06T22:30:23.639Z,87.40
2019-02-06T22:32:55.908Z,93.13
2019-02-06T22:35:26.706Z,79.20
2019-02-06T22:37:57.519Z,82.53
2019-02-06T22:40:27.936Z,78.80
2019-02-06T22:42:58.366Z,82.77
2019-02-06T22:45:29.132Z,90.87
2019-02-06T22:47:59.483Z,86.80
2019-02-06T22:50:29.992Z,103.87
2019-02-06T22:53:00.452Z,101.57
2019-02-06T22:55:30.840Z,94.73
2019-02-06T22:58:01.200Z,106.63
2019-02-06T23:00:49.610Z,127.10
2019-02-06T23:03:29.775Z,99.97
2019-02-06T23:06:00.147Z,112.40
2019-02-06T23:08:30.517Z,122.97
2019-02-06T23:11:01.210Z,104.97
2019-02-06T23:13:31.693Z,103.53
2019-02-06T23:16:02.160Z,106.87
2019-02-06T23:18:32.575Z,101.60
2019-02-06T23:21:03.015Z,102.27
2019-02-06T23:23:33.493Z,111.87
2019-02-06T23:26:05.221Z,100.90
2019-02-06T23:28:37.696Z,92.27
2019-02-06T23:31:08.228Z,89.43
2019-02-06T23:33:38.644Z,83.30
2019-02-06T23:36:08.996Z,80.93
2019-02-06T23:38:39.371Z,86.77
2019-02-06T23:41:09.790Z,83.93
2019-02-06T23:43:40.138Z,80.80
2019-02-06T23:46:11.843Z,85.97
2019-02-06T23:48:42.210Z,74.73
2019-02-06T23:51:12.874Z,87.50
2019-02-06T23:53:44.786Z,76.03
2019-02-06T23:56:15.176Z,73.27
2019-02-06T23:58:45.506Z,71.03
